sensor_id;sensor_type;location;lat;lon;timestamp;temperature;humidity
22360;DHT22;11347;52.030;4.690;2022-10-19T00:00:16;17.50;63.30
22360;DHT22;11347;52.030;4.690;2022-10-19T00:02:41;17.60;63.50
22360;DHT22;11347;52.030;4.690;2022-10-19T00:05:07;17.60;63.50
22360;DHT22;11347;52.030;4.690;2022-10-19T00:07:35;17.60;63.60
22360;DHT22;11347;52.030;4.690;2022-10-19T00:10:01;17.60;63.60
22360;DHT22;11347;52.030;4.690;2022-10-19T00:12:27;17.50;63.50
22360;DHT22;11347;52.030;4.690;2022-10-19T00:14:53;17.60;63.60
22360;DHT22;11347;52.030;4.690;2022-10-19T00:17:18;17.50;63.50
22360;DHT22;11347;52.030;4.690;2022-10-19T00:19:44;17.50;63.60
22360;DHT22;11347;52.030;4.690;2022-10-19T00:22:09;17.50;63.60
22360;DHT22;11347;52.030;4.690;2022-10-19T00:24:35;17.50;63.60
22360;DHT22;11347;52.030;4.690;2022-10-19T00:27:00;17.50;63.70
22360;DHT22;11347;52.030;4.690;2022-10-19T00:29:26;17.50;63.70
22360;DHT22;11347;52.030;4.690;2022-10-19T00:31:51;17.50;63.70
22360;DHT22;11347;52.030;4.690;2022-10-19T00:34:17;17.50;63.70
22360;DHT22;11347;52.030;4.690;2022-10-19T00:36:43;17.50;63.70
22360;DHT22;11347;52.030;4.690;2022-10-19T00:39:14;17.50;63.70
22360;DHT22;11347;52.030;4.690;2022-10-19T00:41:41;17.50;63.70
22360;DHT22;11347;52.030;4.690;2022-10-19T00:46:44;17.50;63.70
22360;DHT22;11347;52.030;4.690;2022-10-19T00:49:24;17.50;63.70
22360;DHT22;11347;52.030;4.690;2022-10-19T00:51:56;17.50;63.70
22360;DHT22;11347;52.030;4.690;2022-10-19T00:54:23;17.50;63.70
22360;DHT22;11347;52.030;4.690;2022-10-19T00:56:51;17.50;63.70
22360;DHT22;11347;52.030;4.690;2022-10-19T00:59:20;17.50;63.70
22360;DHT22;11347;52.030;4.690;2022-10-19T01:01:47;17.50;63.60
22360;DHT22;11347;52.030;4.690;2022-10-19T01:04:13;17.50;63.60
22360;DHT22;11347;52.030;4.690;2022-10-19T01:06:40;17.50;63.70
22360;DHT22;11347;52.030;4.690;2022-10-19T01:09:07;17.50;63.70
22360;DHT22;11347;52.030;4.690;2022-10-19T01:14:37;17.50;63.60
22360;DHT22;11347;52.030;4.690;2022-10-19T01:17:30;17.50;63.60
22360;DHT22;11347;52.030;4.690;2022-10-19T01:20:27;17.50;63.60
22360;DHT22;11347;52.030;4.690;2022-10-19T01:26:14;17.50;63.60
22360;DHT22;11347;52.030;4.690;2022-10-19T01:28:58;17.50;63.60
22360;DHT22;11347;52.030;4.690;2022-10-19T01:34:17;17.50;63.60
22360;DHT22;11347;52.030;4.690;2022-10-19T01:40:19;17.50;63.60
22360;DHT22;11347;52.030;4.690;2022-10-19T01:43:08;17.50;63.50
22360;DHT22;11347;52.030;4.690;2022-10-19T01:45:44;17.50;63.40
22360;DHT22;11347;52.030;4.690;2022-10-19T01:48:25;17.40;63.30
22360;DHT22;11347;52.030;4.690;2022-10-19T01:51:09;17.50;63.40
22360;DHT22;11347;52.030;4.690;2022-10-19T01:53:41;17.50;63.40
22360;DHT22;11347;52.030;4.690;2022-10-19T01:56:09;17.40;63.80
22360;DHT22;11347;52.030;4.690;2022-10-19T01:58:36;17.40;63.30
22360;DHT22;11347;52.030;4.690;2022-10-19T02:01:05;17.40;63.40
22360;DHT22;11347;52.030;4.690;2022-10-19T02:03:33;17.40;63.30
22360;DHT22;11347;52.030;4.690;2022-10-19T02:06:05;17.40;63.30
22360;DHT22;11347;52.030;4.690;2022-10-19T02:08:43;17.40;63.30
22360;DHT22;11347;52.030;4.690;2022-10-19T02:11:09;17.40;63.30
22360;DHT22;11347;52.030;4.690;2022-10-19T02:13:35;17.40;63.40
22360;DHT22;11347;52.030;4.690;2022-10-19T02:16:06;17.40;63.30
22360;DHT22;11347;52.030;4.690;2022-10-19T02:18:41;17.40;63.30
22360;DHT22;11347;52.030;4.690;2022-10-19T02:21:09;17.40;63.30
22360;DHT22;11347;52.030;4.690;2022-10-19T02:23:35;17.40;63.20
22360;DHT22;11347;52.030;4.690;2022-10-19T02:26:01;17.40;63.20
22360;DHT22;11347;52.030;4.690;2022-10-19T02:28:27;17.40;63.20
22360;DHT22;11347;52.030;4.690;2022-10-19T02:30:54;17.30;63.10
22360;DHT22;11347;52.030;4.690;2022-10-19T02:33:19;17.40;63.10
22360;DHT22;11347;52.030;4.690;2022-10-19T02:35:45;17.40;63.10
22360;DHT22;11347;52.030;4.690;2022-10-19T02:38:16;17.40;63.10
22360;DHT22;11347;52.030;4.690;2022-10-19T02:40:50;17.40;63.10
22360;DHT22;11347;52.030;4.690;2022-10-19T02:43:17;17.40;63.10
22360;DHT22;11347;52.030;4.690;2022-10-19T02:46:01;17.30;63.10
22360;DHT22;11347;52.030;4.690;2022-10-19T02:48:30;17.40;63.10
22360;DHT22;11347;52.030;4.690;2022-10-19T02:50:56;17.30;63.00
22360;DHT22;11347;52.030;4.690;2022-10-19T02:53:22;17.30;63.00
22360;DHT22;11347;52.030;4.690;2022-10-19T02:55:48;17.30;62.90
22360;DHT22;11347;52.030;4.690;2022-10-19T02:58:14;17.30;62.90
22360;DHT22;11347;52.030;4.690;2022-10-19T03:00:40;17.30;62.80
22360;DHT22;11347;52.030;4.690;2022-10-19T03:03:06;17.30;62.90
22360;DHT22;11347;52.030;4.690;2022-10-19T03:05:31;17.30;62.80
22360;DHT22;11347;52.030;4.690;2022-10-19T03:07:57;17.30;62.80
22360;DHT22;11347;52.030;4.690;2022-10-19T03:10:23;17.30;62.90
22360;DHT22;11347;52.030;4.690;2022-10-19T03:12:48;17.30;62.90
22360;DHT22;11347;52.030;4.690;2022-10-19T03:15:15;17.30;62.80
22360;DHT22;11347;52.030;4.690;2022-10-19T03:17:41;17.30;62.80
22360;DHT22;11347;52.030;4.690;2022-10-19T03:20:08;17.30;62.80
22360;DHT22;11347;52.030;4.690;2022-10-19T03:22:34;17.30;62.80
22360;DHT22;11347;52.030;4.690;2022-10-19T03:24:59;17.30;62.80
22360;DHT22;11347;52.030;4.690;2022-10-19T03:27:25;17.30;62.70
22360;DHT22;11347;52.030;4.690;2022-10-19T03:29:50;17.30;62.60
22360;DHT22;11347;52.030;4.690;2022-10-19T03:32:16;17.20;62.50
22360;DHT22;11347;52.030;4.690;2022-10-19T03:34:41;17.20;62.50
22360;DHT22;11347;52.030;4.690;2022-10-19T03:37:07;17.20;62.50
22360;DHT22;11347;52.030;4.690;2022-10-19T03:39:33;17.20;62.50
22360;DHT22;11347;52.030;4.690;2022-10-19T03:41:59;17.20;62.50
22360;DHT22;11347;52.030;4.690;2022-10-19T03:44:24;17.20;62.40
22360;DHT22;11347;52.030;4.690;2022-10-19T03:46:50;17.20;62.50
22360;DHT22;11347;52.030;4.690;2022-10-19T03:49:15;17.20;62.50
22360;DHT22;11347;52.030;4.690;2022-10-19T03:51:41;17.20;62.60
22360;DHT22;11347;52.030;4.690;2022-10-19T03:54:11;17.20;62.70
22360;DHT22;11347;52.030;4.690;2022-10-19T03:56:37;17.20;63.00
22360;DHT22;11347;52.030;4.690;2022-10-19T03:59:04;17.20;63.10
22360;DHT22;11347;52.030;4.690;2022-10-19T04:01:32;17.20;63.20
22360;DHT22;11347;52.030;4.690;2022-10-19T04:04:03;17.20;63.10
22360;DHT22;11347;52.030;4.690;2022-10-19T04:06:32;17.20;63.20
22360;DHT22;11347;52.030;4.690;2022-10-19T04:08:58;17.20;63.20
22360;DHT22;11347;52.030;4.690;2022-10-19T04:11:26;17.20;63.10
22360;DHT22;11347;52.030;4.690;2022-10-19T04:13:53;17.20;63.10
22360;DHT22;11347;52.030;4.690;2022-10-19T04:16:20;17.20;63.10
22360;DHT22;11347;52.030;4.690;2022-10-19T04:18:46;17.20;63.10
22360;DHT22;11347;52.030;4.690;2022-10-19T04:21:37;17.20;63.00
22360;DHT22;11347;52.030;4.690;2022-10-19T04:24:11;17.20;63.00
22360;DHT22;11347;52.030;4.690;2022-10-19T04:26:40;17.10;62.90
22360;DHT22;11347;52.030;4.690;2022-10-19T04:29:06;17.20;63.00
22360;DHT22;11347;52.030;4.690;2022-10-19T04:31:31;17.20;63.40
22360;DHT22;11347;52.030;4.690;2022-10-19T04:33:57;17.20;62.90
22360;DHT22;11347;52.030;4.690;2022-10-19T04:36:23;17.10;62.80
22360;DHT22;11347;52.030;4.690;2022-10-19T04:38:48;17.10;62.80
22360;DHT22;11347;52.030;4.690;2022-10-19T04:41:16;17.20;62.80
22360;DHT22;11347;52.030;4.690;2022-10-19T04:43:42;17.10;62.60
22360;DHT22;11347;52.030;4.690;2022-10-19T04:46:14;17.10;62.60
22360;DHT22;11347;52.030;4.690;2022-10-19T04:48:41;17.10;62.60
22360;DHT22;11347;52.030;4.690;2022-10-19T04:51:07;17.10;62.70
22360;DHT22;11347;52.030;4.690;2022-10-19T04:53:34;17.10;62.80
22360;DHT22;11347;52.030;4.690;2022-10-19T04:56:04;17.10;62.90
22360;DHT22;11347;52.030;4.690;2022-10-19T04:58:30;17.10;62.90
22360;DHT22;11347;52.030;4.690;2022-10-19T05:00:55;17.10;62.90
22360;DHT22;11347;52.030;4.690;2022-10-19T05:03:21;17.10;62.90
22360;DHT22;11347;52.030;4.690;2022-10-19T05:05:46;17.10;62.90
22360;DHT22;11347;52.030;4.690;2022-10-19T05:08:12;17.10;62.80
22360;DHT22;11347;52.030;4.690;2022-10-19T05:10:38;17.10;63.10
22360;DHT22;11347;52.030;4.690;2022-10-19T05:13:03;17.10;63.10
22360;DHT22;11347;52.030;4.690;2022-10-19T05:15:29;17.10;63.10
22360;DHT22;11347;52.030;4.690;2022-10-19T05:17:55;17.10;63.10
22360;DHT22;11347;52.030;4.690;2022-10-19T05:20:21;17.10;63.20
22360;DHT22;11347;52.030;4.690;2022-10-19T05:22:47;17.10;63.10
22360;DHT22;11347;52.030;4.690;2022-10-19T05:25:12;17.10;63.10
22360;DHT22;11347;52.030;4.690;2022-10-19T05:27:38;17.10;63.10
22360;DHT22;11347;52.030;4.690;2022-10-19T05:30:04;17.10;63.10
22360;DHT22;11347;52.030;4.690;2022-10-19T05:32:31;17.10;63.00
22360;DHT22;11347;52.030;4.690;2022-10-19T05:34:56;17.10;62.90
22360;DHT22;11347;52.030;4.690;2022-10-19T05:37:22;17.10;62.90
22360;DHT22;11347;52.030;4.690;2022-10-19T05:39:47;17.10;62.90
22360;DHT22;11347;52.030;4.690;2022-10-19T05:42:13;17.10;63.00
22360;DHT22;11347;52.030;4.690;2022-10-19T05:44:38;17.10;63.00
22360;DHT22;11347;52.030;4.690;2022-10-19T05:47:04;17.10;62.90
22360;DHT22;11347;52.030;4.690;2022-10-19T05:49:29;17.10;62.80
22360;DHT22;11347;52.030;4.690;2022-10-19T05:51:55;17.10;62.90
22360;DHT22;11347;52.030;4.690;2022-10-19T05:54:21;17.10;62.80
22360;DHT22;11347;52.030;4.690;2022-10-19T05:56:46;17.10;62.80
22360;DHT22;11347;52.030;4.690;2022-10-19T05:59:17;17.10;62.80
22360;DHT22;11347;52.030;4.690;2022-10-19T06:01:44;17.10;62.70
22360;DHT22;11347;52.030;4.690;2022-10-19T06:04:09;17.10;62.70
22360;DHT22;11347;52.030;4.690;2022-10-19T06:06:35;17.10;62.70
22360;DHT22;11347;52.030;4.690;2022-10-19T06:09:01;17.00;62.60
22360;DHT22;11347;52.030;4.690;2022-10-19T06:11:33;17.00;62.50
22360;DHT22;11347;52.030;4.690;2022-10-19T06:14:05;17.00;62.50
22360;DHT22;11347;52.030;4.690;2022-10-19T06:16:31;17.00;62.50
22360;DHT22;11347;52.030;4.690;2022-10-19T06:18:57;17.00;62.50
22360;DHT22;11347;52.030;4.690;2022-10-19T06:21:26;17.00;62.40
22360;DHT22;11347;52.030;4.690;2022-10-19T06:23:54;17.00;62.40
22360;DHT22;11347;52.030;4.690;2022-10-19T06:26:21;17.00;62.40
22360;DHT22;11347;52.030;4.690;2022-10-19T06:28:47;17.00;62.50
22360;DHT22;11347;52.030;4.690;2022-10-19T06:31:13;17.00;62.50
22360;DHT22;11347;52.030;4.690;2022-10-19T06:33:40;17.00;62.50
22360;DHT22;11347;52.030;4.690;2022-10-19T06:36:14;17.00;62.80
22360;DHT22;11347;52.030;4.690;2022-10-19T06:38:41;17.00;62.80
22360;DHT22;11347;52.030;4.690;2022-10-19T06:41:07;17.00;62.80
22360;DHT22;11347;52.030;4.690;2022-10-19T06:43:33;17.00;62.80
22360;DHT22;11347;52.030;4.690;2022-10-19T06:46:03;17.00;62.80
22360;DHT22;11347;52.030;4.690;2022-10-19T06:48:29;17.00;62.70
22360;DHT22;11347;52.030;4.690;2022-10-19T06:50:57;17.00;62.70
22360;DHT22;11347;52.030;4.690;2022-10-19T06:53:23;17.00;62.70
22360;DHT22;11347;52.030;4.690;2022-10-19T06:55:48;17.00;62.70
22360;DHT22;11347;52.030;4.690;2022-10-19T06:58:14;17.00;62.70
22360;DHT22;11347;52.030;4.690;2022-10-19T07:00:39;17.00;62.60
22360;DHT22;11347;52.030;4.690;2022-10-19T07:03:05;17.00;62.50
22360;DHT22;11347;52.030;4.690;2022-10-19T07:05:30;17.00;62.60
22360;DHT22;11347;52.030;4.690;2022-10-19T07:07:56;17.00;62.60
22360;DHT22;11347;52.030;4.690;2022-10-19T07:10:22;17.00;62.60
22360;DHT22;11347;52.030;4.690;2022-10-19T07:12:48;17.00;62.50
22360;DHT22;11347;52.030;4.690;2022-10-19T07:15:13;17.00;62.70
22360;DHT22;11347;52.030;4.690;2022-10-19T07:17:39;17.00;62.70
22360;DHT22;11347;52.030;4.690;2022-10-19T07:20:05;17.10;63.40
22360;DHT22;11347;52.030;4.690;2022-10-19T07:22:30;17.10;63.20
22360;DHT22;11347;52.030;4.690;2022-10-19T07:24:56;17.10;63.10
22360;DHT22;11347;52.030;4.690;2022-10-19T07:27:23;17.10;63.00
22360;DHT22;11347;52.030;4.690;2022-10-19T07:29:48;17.10;63.10
22360;DHT22;11347;52.030;4.690;2022-10-19T07:32:14;17.10;63.00
22360;DHT22;11347;52.030;4.690;2022-10-19T07:34:40;17.10;62.80
22360;DHT22;11347;52.030;4.690;2022-10-19T07:37:05;17.10;62.40
22360;DHT22;11347;52.030;4.690;2022-10-19T07:39:31;17.10;62.30
22360;DHT22;11347;52.030;4.690;2022-10-19T07:41:57;17.10;62.10
22360;DHT22;11347;52.030;4.690;2022-10-19T07:44:22;17.10;61.90
22360;DHT22;11347;52.030;4.690;2022-10-19T07:46:48;17.10;61.80
22360;DHT22;11347;52.030;4.690;2022-10-19T07:49:15;17.10;61.80
22360;DHT22;11347;52.030;4.690;2022-10-19T07:51:43;17.10;61.70
22360;DHT22;11347;52.030;4.690;2022-10-19T07:54:09;17.10;61.50
22360;DHT22;11347;52.030;4.690;2022-10-19T07:56:34;17.10;61.40
22360;DHT22;11347;52.030;4.690;2022-10-19T07:59:00;17.10;61.40
22360;DHT22;11347;52.030;4.690;2022-10-19T08:01:32;17.10;61.40
22360;DHT22;11347;52.030;4.690;2022-10-19T08:03:59;17.00;61.30
22360;DHT22;11347;52.030;4.690;2022-10-19T08:06:25;17.10;61.40
22360;DHT22;11347;52.030;4.690;2022-10-19T08:08:52;17.10;61.30
22360;DHT22;11347;52.030;4.690;2022-10-19T08:11:23;17.00;61.70
22360;DHT22;11347;52.030;4.690;2022-10-19T08:13:49;17.10;61.30
22360;DHT22;11347;52.030;4.690;2022-10-19T08:16:25;17.10;61.30
22360;DHT22;11347;52.030;4.690;2022-10-19T08:18:54;17.10;61.20
22360;DHT22;11347;52.030;4.690;2022-10-19T08:21:20;17.10;61.30
22360;DHT22;11347;52.030;4.690;2022-10-19T08:23:46;17.10;61.30
22360;DHT22;11347;52.030;4.690;2022-10-19T08:26:11;17.10;61.30
22360;DHT22;11347;52.030;4.690;2022-10-19T08:28:37;17.10;61.30
22360;DHT22;11347;52.030;4.690;2022-10-19T08:31:16;17.10;61.20
22360;DHT22;11347;52.030;4.690;2022-10-19T08:33:43;17.10;61.30
22360;DHT22;11347;52.030;4.690;2022-10-19T08:36:10;17.10;61.30
22360;DHT22;11347;52.030;4.690;2022-10-19T08:38:37;17.10;61.30
22360;DHT22;11347;52.030;4.690;2022-10-19T08:41:27;17.10;61.30
22360;DHT22;11347;52.030;4.690;2022-10-19T08:49:59;17.20;61.40
22360;DHT22;11347;52.030;4.690;2022-10-19T08:52:31;17.20;61.50
22360;DHT22;11347;52.030;4.690;2022-10-19T08:55:12;17.20;61.50
22360;DHT22;11347;52.030;4.690;2022-10-19T09:05:56;17.30;61.50
22360;DHT22;11347;52.030;4.690;2022-10-19T09:08:27;17.30;61.50
22360;DHT22;11347;52.030;4.690;2022-10-19T09:10:53;17.30;61.40
22360;DHT22;11347;52.030;4.690;2022-10-19T09:13:32;17.30;61.40
22360;DHT22;11347;52.030;4.690;2022-10-19T09:15:59;17.30;61.40
22360;DHT22;11347;52.030;4.690;2022-10-19T09:18:28;17.30;61.40
22360;DHT22;11347;52.030;4.690;2022-10-19T09:21:01;17.30;61.30
22360;DHT22;11347;52.030;4.690;2022-10-19T09:26:00;17.40;61.40
22360;DHT22;11347;52.030;4.690;2022-10-19T09:28:53;17.50;61.50
22360;DHT22;11347;52.030;4.690;2022-10-19T09:31:29;17.50;61.40
22360;DHT22;11347;52.030;4.690;2022-10-19T09:34:02;17.50;61.40
22360;DHT22;11347;52.030;4.690;2022-10-19T09:36:39;17.50;61.40
22360;DHT22;11347;52.030;4.690;2022-10-19T09:39:05;17.60;61.40
22360;DHT22;11347;52.030;4.690;2022-10-19T09:41:31;17.60;61.30
22360;DHT22;11347;52.030;4.690;2022-10-19T09:43:58;17.60;61.30
22360;DHT22;11347;52.030;4.690;2022-10-19T09:46:31;17.60;61.30
22360;DHT22;11347;52.030;4.690;2022-10-19T09:48:59;17.60;61.30
22360;DHT22;11347;52.030;4.690;2022-10-19T09:51:59;17.70;61.30
22360;DHT22;11347;52.030;4.690;2022-10-19T09:54:35;17.70;61.40
22360;DHT22;11347;52.030;4.690;2022-10-19T09:57:03;17.70;61.30
22360;DHT22;11347;52.030;4.690;2022-10-19T09:59:33;17.70;61.20
22360;DHT22;11347;52.030;4.690;2022-10-19T10:04:31;17.80;61.30
22360;DHT22;11347;52.030;4.690;2022-10-19T10:06:57;17.80;61.20
22360;DHT22;11347;52.030;4.690;2022-10-19T10:09:26;17.80;61.20
22360;DHT22;11347;52.030;4.690;2022-10-19T10:11:56;17.80;61.10
22360;DHT22;11347;52.030;4.690;2022-10-19T10:14:29;17.80;61.00
22360;DHT22;11347;52.030;4.690;2022-10-19T10:17:02;17.80;60.90
22360;DHT22;11347;52.030;4.690;2022-10-19T10:19:30;17.80;60.80
22360;DHT22;11347;52.030;4.690;2022-10-19T10:21:57;17.90;60.90
22360;DHT22;11347;52.030;4.690;2022-10-19T10:24:26;17.90;60.80
22360;DHT22;11347;52.030;4.690;2022-10-19T10:27:00;17.90;60.70
22360;DHT22;11347;52.030;4.690;2022-10-19T10:29:28;17.90;60.60
22360;DHT22;11347;52.030;4.690;2022-10-19T10:32:26;17.90;60.60
22360;DHT22;11347;52.030;4.690;2022-10-19T10:35:00;17.90;60.50
22360;DHT22;11347;52.030;4.690;2022-10-19T10:37:33;17.90;60.40
22360;DHT22;11347;52.030;4.690;2022-10-19T10:39:59;17.90;60.50
22360;DHT22;11347;52.030;4.690;2022-10-19T10:42:34;18.00;60.50
22360;DHT22;11347;52.030;4.690;2022-10-19T10:45:01;17.90;60.30
22360;DHT22;11347;52.030;4.690;2022-10-19T10:47:27;18.00;60.30
22360;DHT22;11347;52.030;4.690;2022-10-19T10:50:00;18.00;60.30
22360;DHT22;11347;52.030;4.690;2022-10-19T10:52:28;18.00;60.30
22360;DHT22;11347;52.030;4.690;2022-10-19T10:57:39;18.00;60.20
22360;DHT22;11347;52.030;4.690;2022-10-19T11:00:15;18.00;60.20
22360;DHT22;11347;52.030;4.690;2022-10-19T11:07:52;18.10;60.10
22360;DHT22;11347;52.030;4.690;2022-10-19T11:10:27;18.10;60.10
22360;DHT22;11347;52.030;4.690;2022-10-19T11:13:36;18.10;60.00
22360;DHT22;11347;52.030;4.690;2022-10-19T11:16:01;18.10;60.00
22360;DHT22;11347;52.030;4.690;2022-10-19T11:18:40;18.10;60.00
22360;DHT22;11347;52.030;4.690;2022-10-19T11:21:14;18.10;60.00
22360;DHT22;11347;52.030;4.690;2022-10-19T11:24:07;18.10;60.00
22360;DHT22;11347;52.030;4.690;2022-10-19T11:26:58;18.20;60.00
22360;DHT22;11347;52.030;4.690;2022-10-19T11:32:26;18.20;60.10
22360;DHT22;11347;52.030;4.690;2022-10-19T11:40:37;18.30;60.20
22360;DHT22;11347;52.030;4.690;2022-10-19T11:48:53;18.30;60.10
22360;DHT22;11347;52.030;4.690;2022-10-19T11:51:39;18.30;60.10
22360;DHT22;11347;52.030;4.690;2022-10-19T11:57:06;18.40;60.10
22360;DHT22;11347;52.030;4.690;2022-10-19T12:08:21;18.40;60.00
22360;DHT22;11347;52.030;4.690;2022-10-19T12:11:04;18.50;60.00
22360;DHT22;11347;52.030;4.690;2022-10-19T12:13:42;18.50;60.00
22360;DHT22;11347;52.030;4.690;2022-10-19T12:16:12;18.50;60.00
22360;DHT22;11347;52.030;4.690;2022-10-19T12:18:54;18.50;59.90
22360;DHT22;11347;52.030;4.690;2022-10-19T12:21:26;18.50;59.80
22360;DHT22;11347;52.030;4.690;2022-10-19T12:23:57;18.60;59.90
22360;DHT22;11347;52.030;4.690;2022-10-19T12:26:28;18.60;59.80
22360;DHT22;11347;52.030;4.690;2022-10-19T12:28:57;18.60;59.80
22360;DHT22;11347;52.030;4.690;2022-10-19T12:31:25;18.60;59.80
22360;DHT22;11347;52.030;4.690;2022-10-19T12:36:53;18.60;59.60
22360;DHT22;11347;52.030;4.690;2022-10-19T12:39:55;18.60;59.50
22360;DHT22;11347;52.030;4.690;2022-10-19T12:42:48;18.70;59.60
22360;DHT22;11347;52.030;4.690;2022-10-19T12:45:27;18.70;59.60
22360;DHT22;11347;52.030;4.690;2022-10-19T12:53:34;18.70;59.30
22360;DHT22;11347;52.030;4.690;2022-10-19T12:56:24;18.70;59.20
22360;DHT22;11347;52.030;4.690;2022-10-19T12:58:56;18.70;59.70
22360;DHT22;11347;52.030;4.690;2022-10-19T13:01:40;18.70;59.10
22360;DHT22;11347;52.030;4.690;2022-10-19T13:04:22;18.70;59.70
22360;DHT22;11347;52.030;4.690;2022-10-19T13:06:49;18.80;59.00
22360;DHT22;11347;52.030;4.690;2022-10-19T13:09:25;18.80;58.70
22360;DHT22;11347;52.030;4.690;2022-10-19T13:14:50;18.80;58.70
22360;DHT22;11347;52.030;4.690;2022-10-19T13:28:37;18.80;58.40
22360;DHT22;11347;52.030;4.690;2022-10-19T13:43:36;18.90;58.30
22360;DHT22;11347;52.030;4.690;2022-10-19T13:46:14;18.90;58.10
22360;DHT22;11347;52.030;4.690;2022-10-19T13:54:12;18.90;58.00
22360;DHT22;11347;52.030;4.690;2022-10-19T13:59:38;18.90;57.90
22360;DHT22;11347;52.030;4.690;2022-10-19T14:11:17;19.00;58.10
22360;DHT22;11347;52.030;4.690;2022-10-19T14:13:44;19.00;58.00
22360;DHT22;11347;52.030;4.690;2022-10-19T14:16:20;19.00;58.10
22360;DHT22;11347;52.030;4.690;2022-10-19T14:18:54;19.00;58.00
22360;DHT22;11347;52.030;4.690;2022-10-19T14:21:31;19.00;58.00
22360;DHT22;11347;52.030;4.690;2022-10-19T14:23:58;19.00;58.00
22360;DHT22;11347;52.030;4.690;2022-10-19T14:26:26;19.00;58.00
22360;DHT22;11347;52.030;4.690;2022-10-19T14:28:56;19.00;58.00
22360;DHT22;11347;52.030;4.690;2022-10-19T14:31:24;19.00;58.00
22360;DHT22;11347;52.030;4.690;2022-10-19T14:33:55;18.90;57.90
22360;DHT22;11347;52.030;4.690;2022-10-19T14:36:24;19.00;58.10
22360;DHT22;11347;52.030;4.690;2022-10-19T14:38:54;19.00;58.00
22360;DHT22;11347;52.030;4.690;2022-10-19T14:41:35;19.00;58.00
22360;DHT22;11347;52.030;4.690;2022-10-19T14:44:20;19.00;58.00
22360;DHT22;11347;52.030;4.690;2022-10-19T14:46:51;19.00;58.10
22360;DHT22;11347;52.030;4.690;2022-10-19T14:49:17;19.00;58.10
22360;DHT22;11347;52.030;4.690;2022-10-19T14:51:53;19.00;58.00
22360;DHT22;11347;52.030;4.690;2022-10-19T14:54:30;18.90;57.90
22360;DHT22;11347;52.030;4.690;2022-10-19T14:57:01;19.00;58.00
22360;DHT22;11347;52.030;4.690;2022-10-19T14:59:29;19.00;58.00
22360;DHT22;11347;52.030;4.690;2022-10-19T15:01:58;19.00;58.00
22360;DHT22;11347;52.030;4.690;2022-10-19T15:04:31;18.90;57.90
22360;DHT22;11347;52.030;4.690;2022-10-19T15:07:02;18.90;57.90
22360;DHT22;11347;52.030;4.690;2022-10-19T15:09:32;19.00;58.00
22360;DHT22;11347;52.030;4.690;2022-10-19T15:12:13;18.90;57.90
22360;DHT22;11347;52.030;4.690;2022-10-19T15:14:39;18.90;57.90
22360;DHT22;11347;52.030;4.690;2022-10-19T15:17:49;18.90;58.00
22360;DHT22;11347;52.030;4.690;2022-10-19T15:20:22;18.90;57.90
22360;DHT22;11347;52.030;4.690;2022-10-19T15:22:48;18.90;58.00
22360;DHT22;11347;52.030;4.690;2022-10-19T15:27:43;18.90;58.00
22360;DHT22;11347;52.030;4.690;2022-10-19T15:32:44;18.90;57.90
22360;DHT22;11347;52.030;4.690;2022-10-19T15:35:11;18.80;57.80
22360;DHT22;11347;52.030;4.690;2022-10-19T15:37:41;18.80;57.80
22360;DHT22;11347;52.030;4.690;2022-10-19T15:40:15;18.80;57.80
22360;DHT22;11347;52.030;4.690;2022-10-19T15:42:43;18.80;57.80
22360;DHT22;11347;52.030;4.690;2022-10-19T15:45:33;18.80;57.80
22360;DHT22;11347;52.030;4.690;2022-10-19T15:48:24;18.80;57.80
22360;DHT22;11347;52.030;4.690;2022-10-19T15:50:51;18.80;57.80
22360;DHT22;11347;52.030;4.690;2022-10-19T15:53:17;18.80;57.80
22360;DHT22;11347;52.030;4.690;2022-10-19T15:55:44;18.80;57.80
22360;DHT22;11347;52.030;4.690;2022-10-19T15:58:10;18.70;57.70
22360;DHT22;11347;52.030;4.690;2022-10-19T16:00:36;18.70;57.70
22360;DHT22;11347;52.030;4.690;2022-10-19T16:03:02;18.70;58.40
22360;DHT22;11347;52.030;4.690;2022-10-19T16:05:28;18.70;57.70
22360;DHT22;11347;52.030;4.690;2022-10-19T16:07:54;18.70;57.70
22360;DHT22;11347;52.030;4.690;2022-10-19T16:10:24;18.70;57.70
22360;DHT22;11347;52.030;4.690;2022-10-19T16:12:51;18.70;57.70
22360;DHT22;11347;52.030;4.690;2022-10-19T16:15:18;18.70;57.70
22360;DHT22;11347;52.030;4.690;2022-10-19T16:17:49;18.70;57.70
22360;DHT22;11347;52.030;4.690;2022-10-19T16:20:16;18.60;57.60
22360;DHT22;11347;52.030;4.690;2022-10-19T16:22:43;18.60;57.60
22360;DHT22;11347;52.030;4.690;2022-10-19T16:25:10;18.60;57.60
22360;DHT22;11347;52.030;4.690;2022-10-19T16:27:35;18.60;57.60
22360;DHT22;11347;52.030;4.690;2022-10-19T16:30:01;18.60;57.60
22360;DHT22;11347;52.030;4.690;2022-10-19T16:32:26;18.60;57.60
22360;DHT22;11347;52.030;4.690;2022-10-19T16:34:52;18.60;57.60
22360;DHT22;11347;52.030;4.690;2022-10-19T16:37:17;18.50;57.50
22360;DHT22;11347;52.030;4.690;2022-10-19T16:39:43;18.50;57.50
22360;DHT22;11347;52.030;4.690;2022-10-19T16:42:09;18.50;57.50
22360;DHT22;11347;52.030;4.690;2022-10-19T16:44:34;18.50;57.50
22360;DHT22;11347;52.030;4.690;2022-10-19T16:47:00;18.40;57.40
22360;DHT22;11347;52.030;4.690;2022-10-19T16:49:25;18.40;57.40
22360;DHT22;11347;52.030;4.690;2022-10-19T16:51:51;18.40;57.40
22360;DHT22;11347;52.030;4.690;2022-10-19T16:54:17;18.40;57.40
22360;DHT22;11347;52.030;4.690;2022-10-19T16:56:47;18.40;57.40
22360;DHT22;11347;52.030;4.690;2022-10-19T16:59:15;18.40;57.40
22360;DHT22;11347;52.030;4.690;2022-10-19T17:01:42;18.40;57.40
22360;DHT22;11347;52.030;4.690;2022-10-19T17:04:12;18.30;57.30
22360;DHT22;11347;52.030;4.690;2022-10-19T17:06:38;18.30;57.30
22360;DHT22;11347;52.030;4.690;2022-10-19T17:09:05;18.30;57.30
22360;DHT22;11347;52.030;4.690;2022-10-19T17:11:33;18.30;57.30
22360;DHT22;11347;52.030;4.690;2022-10-19T17:14:01;18.30;57.30
22360;DHT22;11347;52.030;4.690;2022-10-19T17:16:29;18.30;57.30
22360;DHT22;11347;52.030;4.690;2022-10-19T17:18:56;18.30;57.30
22360;DHT22;11347;52.030;4.690;2022-10-19T17:21:27;18.20;57.20
22360;DHT22;11347;52.030;4.690;2022-10-19T17:23:59;18.20;57.20
22360;DHT22;11347;52.030;4.690;2022-10-19T17:26:35;18.20;57.20
22360;DHT22;11347;52.030;4.690;2022-10-19T17:29:01;18.20;57.20
22360;DHT22;11347;52.030;4.690;2022-10-19T17:31:27;18.20;57.20
22360;DHT22;11347;52.030;4.690;2022-10-19T17:33:53;18.20;57.20
22360;DHT22;11347;52.030;4.690;2022-10-19T17:36:23;18.20;57.20
22360;DHT22;11347;52.030;4.690;2022-10-19T17:38:53;18.20;57.20
22360;DHT22;11347;52.030;4.690;2022-10-19T17:41:19;18.10;57.00
22360;DHT22;11347;52.030;4.690;2022-10-19T17:43:47;18.20;57.20
22360;DHT22;11347;52.030;4.690;2022-10-19T17:46:14;18.10;57.00
22360;DHT22;11347;52.030;4.690;2022-10-19T17:48:41;18.10;57.00
22360;DHT22;11347;52.030;4.690;2022-10-19T17:51:11;18.10;57.00